sensor_id;sensor_type;location;lat;lon;timestamp;P1;durP1;ratioP1;P2;durP2;ratioP2
77350;SDS011;66420;50.246;14.320;2023-01-09T00:00:11;1.40;;;0.80;;
77350;SDS011;66420;50.246;14.320;2023-01-09T00:02:58;1.75;;;1.02;;
77350;SDS011;66420;50.246;14.320;2023-01-09T00:05:43;1.10;;;0.60;;
77350;SDS011;66420;50.246;14.320;2023-01-09T00:08:27;1.60;;;0.82;;
77350;SDS011;66420;50.246;14.320;2023-01-09T00:11:12;1.48;;;1.00;;
77350;SDS011;66420;50.246;14.320;2023-01-09T00:13:57;1.17;;;0.70;;
77350;SDS011;66420;50.246;14.320;2023-01-09T00:16:42;1.38;;;0.85;;
77350;SDS011;66420;50.246;14.320;2023-01-09T00:19:26;1.40;;;0.90;;
77350;SDS011;66420;50.246;14.320;2023-01-09T00:22:11;1.30;;;0.70;;
77350;SDS011;66420;50.246;14.320;2023-01-09T00:24:55;1.40;;;0.90;;
77350;SDS011;66420;50.246;14.320;2023-01-09T00:27:39;1.25;;;0.80;;
77350;SDS011;66420;50.246;14.320;2023-01-09T00:30:24;1.08;;;0.57;;
77350;SDS011;66420;50.246;14.320;2023-01-09T00:33:08;1.33;;;0.73;;
77350;SDS011;66420;50.246;14.320;2023-01-09T00:35:53;1.30;;;0.80;;
77350;SDS011;66420;50.246;14.320;2023-01-09T00:38:38;1.65;;;0.95;;
77350;SDS011;66420;50.246;14.320;2023-01-09T00:41:30;1.35;;;0.77;;
77350;SDS011;66420;50.246;14.320;2023-01-09T00:44:31;1.80;;;1.10;;
77350;SDS011;66420;50.246;14.320;2023-01-09T00:47:21;1.38;;;0.80;;
77350;SDS011;66420;50.246;14.320;2023-01-09T00:50:13;1.40;;;0.80;;
77350;SDS011;66420;50.246;14.320;2023-01-09T00:53:04;1.35;;;0.80;;
77350;SDS011;66420;50.246;14.320;2023-01-09T00:55:57;1.17;;;0.65;;
77350;SDS011;66420;50.246;14.320;2023-01-09T00:58:44;1.30;;;0.73;;
77350;SDS011;66420;50.246;14.320;2023-01-09T01:01:29;1.42;;;0.93;;
77350;SDS011;66420;50.246;14.320;2023-01-09T01:04:14;1.38;;;0.80;;
77350;SDS011;66420;50.246;14.320;2023-01-09T01:07:17;1.60;;;1.00;;
77350;SDS011;66420;50.246;14.320;2023-01-09T01:10:21;1.65;;;1.20;;
77350;SDS011;66420;50.246;14.320;2023-01-09T01:13:08;1.20;;;0.70;;
77350;SDS011;66420;50.246;14.320;2023-01-09T01:15:52;1.30;;;0.90;;
77350;SDS011;66420;50.246;14.320;2023-01-09T01:18:37;1.40;;;0.90;;
77350;SDS011;66420;50.246;14.320;2023-01-09T01:21:22;1.58;;;1.00;;
77350;SDS011;66420;50.246;14.320;2023-01-09T01:24:07;1.50;;;0.90;;
77350;SDS011;66420;50.246;14.320;2023-01-09T01:26:51;1.40;;;0.82;;
77350;SDS011;66420;50.246;14.320;2023-01-09T01:29:36;1.20;;;0.63;;
77350;SDS011;66420;50.246;14.320;2023-01-09T01:32:20;1.55;;;0.90;;
77350;SDS011;66420;50.246;14.320;2023-01-09T01:35:05;1.52;;;0.98;;
77350;SDS011;66420;50.246;14.320;2023-01-09T01:37:51;1.65;;;1.10;;
77350;SDS011;66420;50.246;14.320;2023-01-09T01:40:35;1.77;;;1.17;;
77350;SDS011;66420;50.246;14.320;2023-01-09T01:43:21;1.80;;;1.30;;
77350;SDS011;66420;50.246;14.320;2023-01-09T01:46:05;1.65;;;1.30;;
77350;SDS011;66420;50.246;14.320;2023-01-09T01:48:56;1.50;;;0.90;;
77350;SDS011;66420;50.246;14.320;2023-01-09T01:51:55;1.63;;;1.20;;
77350;SDS011;66420;50.246;14.320;2023-01-09T01:54:39;1.73;;;1.23;;
77350;SDS011;66420;50.246;14.320;2023-01-09T01:57:25;1.42;;;0.82;;
77350;SDS011;66420;50.246;14.320;2023-01-09T02:00:09;1.60;;;1.15;;
77350;SDS011;66420;50.246;14.320;2023-01-09T02:02:55;1.50;;;1.00;;
77350;SDS011;66420;50.246;14.320;2023-01-09T02:05:40;1.77;;;1.17;;
77350;SDS011;66420;50.246;14.320;2023-01-09T02:08:24;1.50;;;0.90;;
77350;SDS011;66420;50.246;14.320;2023-01-09T02:11:09;1.38;;;0.80;;
77350;SDS011;66420;50.246;14.320;2023-01-09T02:42:15;1.23;;;0.70;;
77350;SDS011;66420;50.246;14.320;2023-01-09T02:45:04;1.40;;;0.85;;
77350;SDS011;66420;50.246;14.320;2023-01-09T02:47:49;1.50;;;1.13;;
77350;SDS011;66420;50.246;14.320;2023-01-09T02:56:50;1.60;;;1.00;;
77350;SDS011;66420;50.246;14.320;2023-01-09T03:00:14;1.30;;;0.82;;
77350;SDS011;66420;50.246;14.320;2023-01-09T03:09:02;1.52;;;1.00;;
77350;SDS011;66420;50.246;14.320;2023-01-09T03:11:54;1.33;;;0.73;;
77350;SDS011;66420;50.246;14.320;2023-01-09T03:14:48;1.40;;;0.90;;
77350;SDS011;66420;50.246;14.320;2023-01-09T03:17:37;1.77;;;1.00;;
77350;SDS011;66420;50.246;14.320;2023-01-09T03:20:25;1.38;;;0.88;;
77350;SDS011;66420;50.246;14.320;2023-01-09T03:23:11;1.40;;;1.10;;
77350;SDS011;66420;50.246;14.320;2023-01-09T03:25:55;1.55;;;0.90;;
77350;SDS011;66420;50.246;14.320;2023-01-09T03:28:39;1.40;;;0.70;;
77350;SDS011;66420;50.246;14.320;2023-01-09T03:31:25;1.80;;;1.17;;
77350;SDS011;66420;50.246;14.320;2023-01-09T03:34:10;1.30;;;0.70;;
77350;SDS011;66420;50.246;14.320;2023-01-09T03:36:54;1.30;;;0.70;;
77350;SDS011;66420;50.246;14.320;2023-01-09T03:39:39;1.50;;;0.90;;
77350;SDS011;66420;50.246;14.320;2023-01-09T03:42:23;1.50;;;0.80;;
77350;SDS011;66420;50.246;14.320;2023-01-09T03:45:08;1.75;;;1.58;;
77350;SDS011;66420;50.246;14.320;2023-01-09T03:47:53;1.40;;;0.88;;
77350;SDS011;66420;50.246;14.320;2023-01-09T03:50:38;1.30;;;0.80;;
77350;SDS011;66420;50.246;14.320;2023-01-09T03:53:26;1.52;;;0.80;;
77350;SDS011;66420;50.246;14.320;2023-01-09T03:56:11;1.30;;;0.70;;
77350;SDS011;66420;50.246;14.320;2023-01-09T03:58:56;1.50;;;1.00;;
77350;SDS011;66420;50.246;14.320;2023-01-09T04:01:40;1.20;;;0.70;;
77350;SDS011;66420;50.246;14.320;2023-01-09T04:04:25;1.65;;;1.17;;
77350;SDS011;66420;50.246;14.320;2023-01-09T04:07:09;1.70;;;1.10;;
77350;SDS011;66420;50.246;14.320;2023-01-09T04:09:54;1.35;;;0.70;;
77350;SDS011;66420;50.246;14.320;2023-01-09T04:12:38;1.40;;;1.05;;
77350;SDS011;66420;50.246;14.320;2023-01-09T04:15:22;1.60;;;1.20;;
77350;SDS011;66420;50.246;14.320;2023-01-09T04:18:08;1.65;;;1.25;;
77350;SDS011;66420;50.246;14.320;2023-01-09T04:20:53;1.25;;;0.70;;
77350;SDS011;66420;50.246;14.320;2023-01-09T04:23:37;1.30;;;0.73;;
77350;SDS011;66420;50.246;14.320;2023-01-09T04:26:22;1.45;;;0.80;;
77350;SDS011;66420;50.246;14.320;2023-01-09T04:29:06;1.40;;;0.90;;
77350;SDS011;66420;50.246;14.320;2023-01-09T04:31:51;1.50;;;0.80;;
77350;SDS011;66420;50.246;14.320;2023-01-09T04:34:35;1.52;;;0.80;;
77350;SDS011;66420;50.246;14.320;2023-01-09T04:37:20;1.33;;;0.80;;
77350;SDS011;66420;50.246;14.320;2023-01-09T04:40:06;1.48;;;1.08;;
77350;SDS011;66420;50.246;14.320;2023-01-09T04:42:55;1.38;;;0.80;;
77350;SDS011;66420;50.246;14.320;2023-01-09T04:45:39;1.63;;;1.13;;
77350;SDS011;66420;50.246;14.320;2023-01-09T04:48:24;1.58;;;0.90;;
77350;SDS011;66420;50.246;14.320;2023-01-09T04:51:08;1.77;;;1.23;;
77350;SDS011;66420;50.246;14.320;2023-01-09T04:53:53;1.70;;;1.17;;
77350;SDS011;66420;50.246;14.320;2023-01-09T04:56:37;1.75;;;1.40;;
77350;SDS011;66420;50.246;14.320;2023-01-09T04:59:22;1.55;;;1.02;;
77350;SDS011;66420;50.246;14.320;2023-01-09T05:02:06;1.42;;;0.90;;
77350;SDS011;66420;50.246;14.320;2023-01-09T05:04:51;1.38;;;0.88;;
77350;SDS011;66420;50.246;14.320;2023-01-09T05:07:35;1.80;;;1.08;;
77350;SDS011;66420;50.246;14.320;2023-01-09T05:10:20;1.48;;;1.10;;
77350;SDS011;66420;50.246;14.320;2023-01-09T05:13:04;1.48;;;0.90;;
77350;SDS011;66420;50.246;14.320;2023-01-09T05:15:49;1.52;;;1.00;;
77350;SDS011;66420;50.246;14.320;2023-01-09T05:18:34;1.35;;;0.85;;
77350;SDS011;66420;50.246;14.320;2023-01-09T05:21:18;1.30;;;0.80;;
77350;SDS011;66420;50.246;14.320;2023-01-09T05:24:03;1.40;;;0.82;;
77350;SDS011;66420;50.246;14.320;2023-01-09T05:26:48;1.27;;;0.70;;
77350;SDS011;66420;50.246;14.320;2023-01-09T05:29:32;1.60;;;1.10;;
77350;SDS011;66420;50.246;14.320;2023-01-09T05:32:17;1.45;;;1.00;;
77350;SDS011;66420;50.246;14.320;2023-01-09T05:35:01;1.60;;;1.10;;
77350;SDS011;66420;50.246;14.320;2023-01-09T05:37:46;1.25;;;0.73;;
77350;SDS011;66420;50.246;14.320;2023-01-09T05:40:31;1.50;;;1.10;;
77350;SDS011;66420;50.246;14.320;2023-01-09T05:43:15;1.30;;;0.77;;
77350;SDS011;66420;50.246;14.320;2023-01-09T05:46:00;1.30;;;0.77;;
77350;SDS011;66420;50.246;14.320;2023-01-09T05:48:44;1.40;;;0.80;;
77350;SDS011;66420;50.246;14.320;2023-01-09T05:51:29;1.67;;;1.25;;
77350;SDS011;66420;50.246;14.320;2023-01-09T05:54:15;1.48;;;0.93;;
77350;SDS011;66420;50.246;14.320;2023-01-09T05:56:59;2.00;;;1.40;;
77350;SDS011;66420;50.246;14.320;2023-01-09T05:59:44;1.40;;;0.85;;
77350;SDS011;66420;50.246;14.320;2023-01-09T06:02:28;1.63;;;0.80;;
77350;SDS011;66420;50.246;14.320;2023-01-09T06:05:13;1.75;;;1.30;;
77350;SDS011;66420;50.246;14.320;2023-01-09T06:07:57;1.73;;;1.27;;
77350;SDS011;66420;50.246;14.320;2023-01-09T06:10:45;1.98;;;1.30;;
77350;SDS011;66420;50.246;14.320;2023-01-09T06:13:30;2.28;;;1.67;;
77350;SDS011;66420;50.246;14.320;2023-01-09T06:16:14;1.90;;;1.08;;
77350;SDS011;66420;50.246;14.320;2023-01-09T06:18:59;1.52;;;0.82;;
77350;SDS011;66420;50.246;14.320;2023-01-09T06:21:43;1.73;;;1.10;;
77350;SDS011;66420;50.246;14.320;2023-01-09T06:24:28;1.80;;;1.30;;
77350;SDS011;66420;50.246;14.320;2023-01-09T06:27:12;1.67;;;1.33;;
77350;SDS011;66420;50.246;14.320;2023-01-09T06:29:56;1.60;;;1.10;;
77350;SDS011;66420;50.246;14.320;2023-01-09T06:32:41;2.13;;;1.50;;
77350;SDS011;66420;50.246;14.320;2023-01-09T06:35:30;1.23;;;0.80;;
77350;SDS011;66420;50.246;14.320;2023-01-09T06:38:15;1.70;;;1.10;;
77350;SDS011;66420;50.246;14.320;2023-01-09T06:40:59;1.85;;;1.40;;
77350;SDS011;66420;50.246;14.320;2023-01-09T06:43:44;1.50;;;0.93;;
77350;SDS011;66420;50.246;14.320;2023-01-09T06:46:28;1.88;;;1.10;;
77350;SDS011;66420;50.246;14.320;2023-01-09T06:49:13;1.13;;;0.80;;
77350;SDS011;66420;50.246;14.320;2023-01-09T06:51:57;1.30;;;0.73;;
77350;SDS011;66420;50.246;14.320;2023-01-09T06:54:42;1.58;;;1.10;;
77350;SDS011;66420;50.246;14.320;2023-01-09T06:57:26;1.80;;;1.40;;
77350;SDS011;66420;50.246;14.320;2023-01-09T07:00:11;1.30;;;0.80;;
77350;SDS011;66420;50.246;14.320;2023-01-09T07:02:56;1.60;;;1.17;;
77350;SDS011;66420;50.246;14.320;2023-01-09T07:05:41;1.77;;;1.25;;
77350;SDS011;66420;50.246;14.320;2023-01-09T07:08:26;1.20;;;0.73;;
77350;SDS011;66420;50.246;14.320;2023-01-09T07:11:10;1.40;;;0.90;;
77350;SDS011;66420;50.246;14.320;2023-01-09T07:13:55;1.67;;;1.13;;
77350;SDS011;66420;50.246;14.320;2023-01-09T07:16:39;1.50;;;0.93;;
77350;SDS011;66420;50.246;14.320;2023-01-09T07:19:23;1.50;;;1.10;;
77350;SDS011;66420;50.246;14.320;2023-01-09T07:22:08;1.30;;;0.82;;
77350;SDS011;66420;50.246;14.320;2023-01-09T07:24:53;1.48;;;0.98;;
77350;SDS011;66420;50.246;14.320;2023-01-09T07:27:38;1.70;;;1.20;;
77350;SDS011;66420;50.246;14.320;2023-01-09T07:30:23;1.63;;;1.20;;
77350;SDS011;66420;50.246;14.320;2023-01-09T07:33:07;1.80;;;1.20;;
77350;SDS011;66420;50.246;14.320;2023-01-09T07:35:51;1.65;;;1.17;;
77350;SDS011;66420;50.246;14.320;2023-01-09T07:38:36;1.50;;;0.98;;
77350;SDS011;66420;50.246;14.320;2023-01-09T07:41:21;1.48;;;0.95;;
77350;SDS011;66420;50.246;14.320;2023-01-09T07:44:05;1.90;;;1.13;;
77350;SDS011;66420;50.246;14.320;2023-01-09T07:46:50;1.23;;;0.75;;
77350;SDS011;66420;50.246;14.320;2023-01-09T07:49:34;1.30;;;0.70;;
77350;SDS011;66420;50.246;14.320;2023-01-09T07:52:19;1.25;;;0.80;;
77350;SDS011;66420;50.246;14.320;2023-01-09T07:55:03;1.45;;;0.90;;
77350;SDS011;66420;50.246;14.320;2023-01-09T07:57:49;1.55;;;1.00;;
77350;SDS011;66420;50.246;14.320;2023-01-09T08:00:34;1.77;;;1.20;;
77350;SDS011;66420;50.246;14.320;2023-01-09T08:03:19;1.60;;;0.90;;
77350;SDS011;66420;50.246;14.320;2023-01-09T08:06:03;1.77;;;1.20;;
77350;SDS011;66420;50.246;14.320;2023-01-09T08:08:48;1.70;;;1.23;;
77350;SDS011;66420;50.246;14.320;2023-01-09T08:11:33;1.50;;;0.98;;
77350;SDS011;66420;50.246;14.320;2023-01-09T08:14:17;1.85;;;1.35;;
77350;SDS011;66420;50.246;14.320;2023-01-09T08:17:02;1.33;;;0.80;;
77350;SDS011;66420;50.246;14.320;2023-01-09T08:19:46;1.70;;;1.10;;
77350;SDS011;66420;50.246;14.320;2023-01-09T08:22:31;1.70;;;1.10;;
77350;SDS011;66420;50.246;14.320;2023-01-09T08:25:15;1.75;;;1.08;;
77350;SDS011;66420;50.246;14.320;2023-01-09T08:28:01;1.35;;;0.82;;
77350;SDS011;66420;50.246;14.320;2023-01-09T08:30:46;1.40;;;0.90;;
77350;SDS011;66420;50.246;14.320;2023-01-09T08:33:31;1.73;;;1.15;;
77350;SDS011;66420;50.246;14.320;2023-01-09T08:36:16;1.40;;;0.90;;
77350;SDS011;66420;50.246;14.320;2023-01-09T08:39:00;1.60;;;1.00;;
77350;SDS011;66420;50.246;14.320;2023-01-09T08:41:45;1.42;;;0.82;;
77350;SDS011;66420;50.246;14.320;2023-01-09T08:44:48;1.20;;;0.73;;
77350;SDS011;66420;50.246;14.320;2023-01-09T08:47:52;1.50;;;0.90;;
77350;SDS011;66420;50.246;14.320;2023-01-09T08:50:36;1.40;;;0.80;;
77350;SDS011;66420;50.246;14.320;2023-01-09T08:53:21;1.67;;;0.80;;
77350;SDS011;66420;50.246;14.320;2023-01-09T08:56:06;1.27;;;0.70;;
77350;SDS011;66420;50.246;14.320;2023-01-09T08:58:50;1.40;;;0.80;;
77350;SDS011;66420;50.246;14.320;2023-01-09T09:01:35;1.42;;;1.00;;
77350;SDS011;66420;50.246;14.320;2023-01-09T09:04:20;1.35;;;0.80;;
77350;SDS011;66420;50.246;14.320;2023-01-09T09:07:04;1.05;;;0.70;;
77350;SDS011;66420;50.246;14.320;2023-01-09T09:09:49;0.98;;;0.60;;
77350;SDS011;66420;50.246;14.320;2023-01-09T09:12:34;1.35;;;0.80;;
77350;SDS011;66420;50.246;14.320;2023-01-09T09:15:18;1.55;;;1.10;;
77350;SDS011;66420;50.246;14.320;2023-01-09T09:18:07;1.40;;;0.85;;
77350;SDS011;66420;50.246;14.320;2023-01-09T09:20:52;1.48;;;0.82;;
77350;SDS011;66420;50.246;14.320;2023-01-09T09:23:36;1.10;;;0.68;;
77350;SDS011;66420;50.246;14.320;2023-01-09T09:26:21;1.20;;;0.80;;
77350;SDS011;66420;50.246;14.320;2023-01-09T09:29:06;1.50;;;1.15;;
77350;SDS011;66420;50.246;14.320;2023-01-09T09:31:50;1.20;;;0.63;;
77350;SDS011;66420;50.246;14.320;2023-01-09T09:34:34;1.55;;;0.93;;
77350;SDS011;66420;50.246;14.320;2023-01-09T09:37:19;1.38;;;0.88;;
77350;SDS011;66420;50.246;14.320;2023-01-09T09:40:05;1.20;;;0.63;;
77350;SDS011;66420;50.246;14.320;2023-01-09T09:42:55;1.25;;;0.75;;
77350;SDS011;66420;50.246;14.320;2023-01-09T09:52:28;1.70;;;1.17;;
77350;SDS011;66420;50.246;14.320;2023-01-09T09:58:19;1.48;;;0.85;;
77350;SDS011;66420;50.246;14.320;2023-01-09T10:01:15;1.30;;;0.80;;
77350;SDS011;66420;50.246;14.320;2023-01-09T10:04:15;1.90;;;1.60;;
77350;SDS011;66420;50.246;14.320;2023-01-09T10:07:05;1.50;;;1.00;;
77350;SDS011;66420;50.246;14.320;2023-01-09T10:09:53;1.38;;;0.90;;
77350;SDS011;66420;50.246;14.320;2023-01-09T10:12:49;1.30;;;1.00;;
77350;SDS011;66420;50.246;14.320;2023-01-09T10:15:40;1.60;;;0.88;;
77350;SDS011;66420;50.246;14.320;2023-01-09T10:22:06;1.50;;;1.20;;
77350;SDS011;66420;50.246;14.320;2023-01-09T10:31:11;1.02;;;0.60;;
77350;SDS011;66420;50.246;14.320;2023-01-09T10:34:09;1.30;;;0.80;;
77350;SDS011;66420;50.246;14.320;2023-01-09T10:37:17;1.17;;;0.73;;
77350;SDS011;66420;50.246;14.320;2023-01-09T10:46:08;1.20;;;0.70;;
77350;SDS011;66420;50.246;14.320;2023-01-09T10:51:47;1.50;;;1.25;;
77350;SDS011;66420;50.246;14.320;2023-01-09T10:54:55;1.50;;;1.02;;
77350;SDS011;66420;50.246;14.320;2023-01-09T10:57:48;1.20;;;0.70;;
77350;SDS011;66420;50.246;14.320;2023-01-09T11:00:37;1.50;;;1.35;;
77350;SDS011;66420;50.246;14.320;2023-01-09T11:03:25;1.40;;;0.75;;
77350;SDS011;66420;50.246;14.320;2023-01-09T11:06:17;0.77;;;0.50;;
77350;SDS011;66420;50.246;14.320;2023-01-09T11:09:05;1.13;;;0.70;;
77350;SDS011;66420;50.246;14.320;2023-01-09T11:11:50;0.70;;;0.45;;
77350;SDS011;66420;50.246;14.320;2023-01-09T11:14:35;1.17;;;0.85;;
77350;SDS011;66420;50.246;14.320;2023-01-09T11:17:25;1.40;;;0.88;;
77350;SDS011;66420;50.246;14.320;2023-01-09T11:20:17;1.25;;;0.95;;
77350;SDS011;66420;50.246;14.320;2023-01-09T11:23:13;1.17;;;0.93;;
77350;SDS011;66420;50.246;14.320;2023-01-09T11:26:22;1.00;;;0.60;;
77350;SDS011;66420;50.246;14.320;2023-01-09T11:29:19;0.80;;;0.50;;
77350;SDS011;66420;50.246;14.320;2023-01-09T11:32:21;1.20;;;0.70;;
77350;SDS011;66420;50.246;14.320;2023-01-09T11:35:14;0.98;;;0.57;;
77350;SDS011;66420;50.246;14.320;2023-01-09T11:38:14;1.00;;;0.60;;
77350;SDS011;66420;50.246;14.320;2023-01-09T11:41:01;0.95;;;0.52;;
77350;SDS011;66420;50.246;14.320;2023-01-09T11:43:48;1.17;;;0.80;;
77350;SDS011;66420;50.246;14.320;2023-01-09T11:49:21;0.70;;;0.50;;
77350;SDS011;66420;50.246;14.320;2023-01-09T11:54:57;0.50;;;0.40;;
77350;SDS011;66420;50.246;14.320;2023-01-09T11:57:47;0.75;;;0.40;;
77350;SDS011;66420;50.246;14.320;2023-01-09T12:23:02;0.57;;;0.50;;
77350;SDS011;66420;50.246;14.320;2023-01-09T12:26:15;0.20;;;0.15;;
77350;SDS011;66420;50.246;14.320;2023-01-09T12:29:16;0.30;;;0.20;;
77350;SDS011;66420;50.246;14.320;2023-01-09T12:41:03;0.20;;;0.10;;
77350;SDS011;66420;50.246;14.320;2023-01-09T12:47:16;0.30;;;0.20;;
77350;SDS011;66420;50.246;14.320;2023-01-09T12:53:29;0.30;;;0.22;;
77350;SDS011;66420;50.246;14.320;2023-01-09T12:56:22;0.50;;;0.40;;
77350;SDS011;66420;50.246;14.320;2023-01-09T12:59:32;0.40;;;0.10;;
77350;SDS011;66420;50.246;14.320;2023-01-09T13:02:31;0.20;;;0.20;;
77350;SDS011;66420;50.246;14.320;2023-01-09T13:05:30;0.10;;;0.10;;
77350;SDS011;66420;50.246;14.320;2023-01-09T13:08:20;0.20;;;0.10;;
77350;SDS011;66420;50.246;14.320;2023-01-09T13:14:19;0.17;;;0.10;;
77350;SDS011;66420;50.246;14.320;2023-01-09T13:17:10;0.30;;;0.20;;
77350;SDS011;66420;50.246;14.320;2023-01-09T13:20:00;0.45;;;0.30;;
77350;SDS011;66420;50.246;14.320;2023-01-09T13:22:46;0.43;;;0.28;;
77350;SDS011;66420;50.246;14.320;2023-01-09T13:25:40;0.30;;;0.20;;
77350;SDS011;66420;50.246;14.320;2023-01-09T13:28:39;0.28;;;0.22;;
77350;SDS011;66420;50.246;14.320;2023-01-09T13:34:35;0.50;;;0.20;;
77350;SDS011;66420;50.246;14.320;2023-01-09T13:37:24;0.10;;;0.10;;
77350;SDS011;66420;50.246;14.320;2023-01-09T13:43:04;0.40;;;0.30;;
77350;SDS011;66420;50.246;14.320;2023-01-09T13:45:53;0.10;;;0.10;;
77350;SDS011;66420;50.246;14.320;2023-01-09T13:48:39;0.10;;;0.10;;
77350;SDS011;66420;50.246;14.320;2023-01-09T13:57:35;0.10;;;0.03;;
77350;SDS011;66420;50.246;14.320;2023-01-09T14:03:15;0.20;;;0.20;;
77350;SDS011;66420;50.246;14.320;2023-01-09T14:06:09;0.30;;;0.20;;
77350;SDS011;66420;50.246;14.320;2023-01-09T14:09:05;0.50;;;0.40;;
77350;SDS011;66420;50.246;14.320;2023-01-09T14:12:05;0.45;;;0.32;;
77350;SDS011;66420;50.246;14.320;2023-01-09T14:14:51;0.80;;;0.60;;
77350;SDS011;66420;50.246;14.320;2023-01-09T14:17:38;0.28;;;0.20;;
77350;SDS011;66420;50.246;14.320;2023-01-09T14:20:32;0.50;;;0.22;;
77350;SDS011;66420;50.246;14.320;2023-01-09T14:23:21;0.20;;;0.20;;
77350;SDS011;66420;50.246;14.320;2023-01-09T14:26:14;0.15;;;0.13;;
77350;SDS011;66420;50.246;14.320;2023-01-09T14:38:36;0.20;;;0.13;;
77350;SDS011;66420;50.246;14.320;2023-01-09T14:50:36;0.30;;;0.20;;
77350;SDS011;66420;50.246;14.320;2023-01-09T14:53:29;0.20;;;0.10;;
77350;SDS011;66420;50.246;14.320;2023-01-09T14:56:25;0.35;;;0.20;;
77350;SDS011;66420;50.246;14.320;2023-01-09T14:59:12;0.40;;;0.25;;
77350;SDS011;66420;50.246;14.320;2023-01-09T15:01:58;0.28;;;0.10;;
77350;SDS011;66420;50.246;14.320;2023-01-09T15:04:43;0.20;;;0.20;;
77350;SDS011;66420;50.246;14.320;2023-01-09T15:07:29;0.32;;;0.20;;
77350;SDS011;66420;50.246;14.320;2023-01-09T15:10:18;0.30;;;0.20;;
77350;SDS011;66420;50.246;14.320;2023-01-09T15:13:12;0.13;;;0.10;;
77350;SDS011;66420;50.246;14.320;2023-01-09T15:16:03;0.20;;;0.10;;
77350;SDS011;66420;50.246;14.320;2023-01-09T15:18:50;0.20;;;0.10;;
77350;SDS011;66420;50.246;14.320;2023-01-09T15:24:23;0.40;;;0.30;;
77350;SDS011;66420;50.246;14.320;2023-01-09T15:27:12;0.63;;;0.38;;
77350;SDS011;66420;50.246;14.320;2023-01-09T15:29:59;0.17;;;0.10;;
77350;SDS011;66420;50.246;14.320;2023-01-09T15:33:00;0.03;;;0.03;;
77350;SDS011;66420;50.246;14.320;2023-01-09T15:35:53;0.10;;;0.10;;
77350;SDS011;66420;50.246;14.320;2023-01-09T15:38:43;0.20;;;0.13;;
77350;SDS011;66420;50.246;14.320;2023-01-09T15:41:29;0.20;;;0.10;;
77350;SDS011;66420;50.246;14.320;2023-01-09T15:44:32;0.10;;;0.10;;
77350;SDS011;66420;50.246;14.320;2023-01-09T15:47:23;0.10;;;0.10;;
77350;SDS011;66420;50.246;14.320;2023-01-09T15:50:15;0.30;;;0.20;;
77350;SDS011;66420;50.246;14.320;2023-01-09T15:53:04;0.13;;;0.13;;
77350;SDS011;66420;50.246;14.320;2023-01-09T15:58:56;0.45;;;0.30;;
77350;SDS011;66420;50.246;14.320;2023-01-09T16:01:41;0.30;;;0.30;;
77350;SDS011;66420;50.246;14.320;2023-01-09T16:04:28;0.30;;;0.20;;
77350;SDS011;66420;50.246;14.320;2023-01-09T16:07:13;0.57;;;0.20;;
77350;SDS011;66420;50.246;14.320;2023-01-09T16:09:59;0.20;;;0.10;;
77350;SDS011;66420;50.246;14.320;2023-01-09T16:12:44;0.30;;;0.13;;
77350;SDS011;66420;50.246;14.320;2023-01-09T16:15:31;0.30;;;0.20;;
77350;SDS011;66420;50.246;14.320;2023-01-09T16:18:23;0.47;;;0.13;;
77350;SDS011;66420;50.246;14.320;2023-01-09T16:30:24;0.45;;;0.35;;
77350;SDS011;66420;50.246;14.320;2023-01-09T16:33:17;0.20;;;0.20;;
77350;SDS011;66420;50.246;14.320;2023-01-09T16:36:05;0.10;;;0.10;;
77350;SDS011;66420;50.246;14.320;2023-01-09T16:38:50;0.25;;;0.10;;
77350;SDS011;66420;50.246;14.320;2023-01-09T16:41:36;0.50;;;0.30;;
77350;SDS011;66420;50.246;14.320;2023-01-09T16:44:39;0.32;;;0.20;;
77350;SDS011;66420;50.246;14.320;2023-01-09T16:47:24;0.28;;;0.10;;
77350;SDS011;66420;50.246;14.320;2023-01-09T16:50:10;0.32;;;0.20;;
77350;SDS011;66420;50.246;14.320;2023-01-09T16:52:55;0.50;;;0.22;;
77350;SDS011;66420;50.246;14.320;2023-01-09T16:55:40;0.63;;;0.28;;
77350;SDS011;66420;50.246;14.320;2023-01-09T16:58:27;0.32;;;0.32;;
77350;SDS011;66420;50.246;14.320;2023-01-09T17:01:15;0.20;;;0.13;;
77350;SDS011;66420;50.246;14.320;2023-01-09T17:04:00;0.40;;;0.20;;
77350;SDS011;66420;50.246;14.320;2023-01-09T17:06:44;0.28;;;0.10;;
77350;SDS011;66420;50.246;14.320;2023-01-09T17:09:31;0.60;;;0.10;;
77350;SDS011;66420;50.246;14.320;2023-01-09T17:12:16;0.40;;;0.30;;
77350;SDS011;66420;50.246;14.320;2023-01-09T17:15:05;0.50;;;0.30;;
77350;SDS011;66420;50.246;14.320;2023-01-09T17:17:51;0.10;;;0.10;;
77350;SDS011;66420;50.246;14.320;2023-01-09T17:20:35;0.32;;;0.13;;
77350;SDS011;66420;50.246;14.320;2023-01-09T17:23:21;0.50;;;0.22;;
77350;SDS011;66420;50.246;14.320;2023-01-09T17:26:07;0.38;;;0.20;;
77350;SDS011;66420;50.246;14.320;2023-01-09T17:29:16;0.60;;;0.20;;
77350;SDS011;66420;50.246;14.320;2023-01-09T17:32:00;0.38;;;0.20;;
77350;SDS011;66420;50.246;14.320;2023-01-09T17:34:45;0.73;;;0.45;;
77350;SDS011;66420;50.246;14.320;2023-01-09T17:37:30;0.82;;;0.32;;
77350;SDS011;66420;50.246;14.320;2023-01-09T17:43:04;0.20;;;0.10;;
77350;SDS011;66420;50.246;14.320;2023-01-09T17:45:49;0.88;;;0.55;;
77350;SDS011;66420;50.246;14.320;2023-01-09T17:48:34;0.45;;;0.30;;
77350;SDS011;66420;50.246;14.320;2023-01-09T17:51:18;0.32;;;0.20;;
77350;SDS011;66420;50.246;14.320;2023-01-09T17:54:03;0.85;;;0.50;;
77350;SDS011;66420;50.246;14.320;2023-01-09T17:56:48;0.47;;;0.20;;
77350;SDS011;66420;50.246;14.320;2023-01-09T17:59:34;0.80;;;0.60;;
77350;SDS011;66420;50.246;14.320;2023-01-09T18:02:19;0.90;;;0.50;;
77350;SDS011;66420;50.246;14.320;2023-01-09T18:05:03;0.45;;;0.30;;
77350;SDS011;66420;50.246;14.320;2023-01-09T18:07:48;0.98;;;0.57;;
77350;SDS011;66420;50.246;14.320;2023-01-09T18:10:33;0.90;;;0.45;;
77350;SDS011;66420;50.246;14.320;2023-01-09T18:13:18;0.73;;;0.32;;
77350;SDS011;66420;50.246;14.320;2023-01-09T18:16:02;0.70;;;0.63;;
77350;SDS011;66420;50.246;14.320;2023-01-09T18:18:47;0.52;;;0.40;;
77350;SDS011;66420;50.246;14.320;2023-01-09T18:21:32;1.05;;;0.43;;
77350;SDS011;66420;50.246;14.320;2023-01-09T18:24:16;0.60;;;0.30;;
77350;SDS011;66420;50.246;14.320;2023-01-09T18:27:01;1.17;;;1.08;;
77350;SDS011;66420;50.246;14.320;2023-01-09T18:29:46;0.70;;;0.30;;
77350;SDS011;66420;50.246;14.320;2023-01-09T18:32:31;0.80;;;0.40;;
77350;SDS011;66420;50.246;14.320;2023-01-09T18:35:16;0.80;;;0.30;;
77350;SDS011;66420;50.246;14.320;2023-01-09T18:38:00;0.55;;;0.30;;
77350;SDS011;66420;50.246;14.320;2023-01-09T18:40:45;0.77;;;0.40;;
77350;SDS011;66420;50.246;14.320;2023-01-09T18:43:30;0.40;;;0.28;;
77350;SDS011;66420;50.246;14.320;2023-01-09T18:46:14;0.28;;;0.10;;
77350;SDS011;66420;50.246;14.320;2023-01-09T18:49:03;0.90;;;0.40;;
77350;SDS011;66420;50.246;14.320;2023-01-09T18:51:48;0.22;;;0.13;;
77350;SDS011;66420;50.246;14.320;2023-01-09T18:54:33;0.50;;;0.20;;
77350;SDS011;66420;50.246;14.320;2023-01-09T18:57:18;0.45;;;0.30;;
77350;SDS011;66420;50.246;14.320;2023-01-09T19:00:02;0.40;;;0.25;;
77350;SDS011;66420;50.246;14.320;2023-01-09T19:02:48;0.60;;;0.28;;
77350;SDS011;66420;50.246;14.320;2023-01-09T19:05:32;0.40;;;0.20;;
77350;SDS011;66420;50.246;14.320;2023-01-09T19:08:17;0.45;;;0.30;;
77350;SDS011;66420;50.246;14.320;2023-01-09T19:11:02;0.60;;;0.38;;
77350;SDS011;66420;50.246;14.320;2023-01-09T19:13:47;0.80;;;0.38;;
77350;SDS011;66420;50.246;14.320;2023-01-09T19:16:33;0.60;;;0.30;;
77350;SDS011;66420;50.246;14.320;2023-01-09T19:19:18;0.50;;;0.20;;